Latest Weather Observations for Narrabri

IDN60801

Issued at 4:42 pm EDT Wednesday 19 December 2018 (issued every 10 minutes, with the page automatically refreshed every 10 minutes)

About weather observations | Map of weather stations | Latest weather observations for NSW | Other Formats
Station Details ID: 054038 Name: NARRABRI AIRPORT AWS Lat: -30.32 Lon: 149.83 Height: 229.02 m
Data from the previous 72 hours. | See also: Recent months at Narrabri
Date/Time
EDT
Temp
°C
App
Temp
°C
Dew
Point
°C
Rel
Hum
%
Delta-T
°C
Wind Press
QNH
hPa
Press
MSL
hPa
Rain since
9am
mm
Dir  Spd
km/h
Gust
km/h
Spd
kts
Gust
kts
19/04:30pm 37.5 36.1 13.5 24 14.9 NW 13 26 7 14 1008.1 1006.8 0.0
19/04:00pm 37.1 35.8 13.8 25 14.5 WNW 13 20 7 11 1008.5 1007.2 0.0
19/03:30pm 36.9 35.0 14.2 25 14.2 NNW 17 26 9 14 1009.0 1007.7 0.0
19/03:00pm 36.7 35.9 15.2 27 13.6 NNW 13 24 7 13 1009.6 1008.3 0.0
19/02:30pm 36.3 34.1 14.9 28 13.5 N 20 33 11 18 1010.1 1008.8 0.0
19/02:00pm 35.9 34.5 15.6 30 12.9 NNW 17 28 9 15 1010.8 1009.5 0.0
19/01:30pm 35.1 33.1 14.9 29 12.7 N 19 30 10 16 1011.2 1009.9 0.0
19/01:00pm 34.4 32.3 15.3 31 12.0 N 20 35 11 19 1011.8 1010.5 0.0
19/12:30pm 33.6 31.8 15.6 34 11.3 N 19 30 10 16 1012.4 1011.1 0.0
19/12:00pm 33.1 31.7 16.5 37 10.6 N 19 30 10 16 1012.9 1011.6 0.0
19/11:30am 32.0 29.4 15.9 38 10.1 NNW 24 37 13 20 1013.1 1011.8 0.0
19/11:00am 31.3 29.5 16.9 42 9.2 N 22 35 12 19 1013.2 1011.9 0.0
19/10:30am 30.9 29.7 17.6 45 8.6 N 20 33 11 18 1013.3 1012.0 0.0
19/10:00am 30.3 29.7 18.4 49 7.7 N 19 30 10 16 1013.4 1012.1 0.0
19/09:30am 29.9 29.1 18.0 48 7.7 N 19 28 10 15 1013.6 1012.3 0.0
19/09:00am 28.9 28.3 18.4 53 6.8 NNW 19 28 10 15 1013.6 1012.3 0.0
19/08:30am 28.2 27.4 18.0 54 6.5 N 19 24 10 13 1013.3 1012.0 0.0
19/08:00am 27.4 26.5 18.1 57 6.0 N 20 26 11 14 1013.0 1011.7 0.0
19/07:30am 26.6 25.7 18.2 60 5.4 N 20 26 11 14 1012.7 1011.4 0.0
19/07:00am 26.0 25.2 17.9 61 5.2 N 19 22 10 12 1012.4 1011.1 0.0
19/06:30am 25.3 24.8 17.7 62 4.8 N 17 22 9 12 1012.1 1010.8 0.0
19/06:00am 24.8 24.1 17.3 63 4.7 N 17 22 9 12 1011.7 1010.4 0.0
19/05:30am 25.9 24.2 17.3 59 5.4 N 22 28 12 15 1011.2 1009.9 0.0
19/05:00am 26.3 24.9 17.1 57 5.8 N 20 24 11 13 1010.8 1009.5 0.0
19/04:30am 26.8 25.4 17.0 55 6.2 N 20 28 11 15 1010.5 1009.2 0.0
19/04:00am 26.9 25.4 16.8 54 6.3 N 20 28 11 15 1010.2 1008.9 0.0
19/03:30am 27.3 25.5 16.9 53 6.5 N 22 28 12 15 1009.9 1008.6 0.0
19/03:00am 27.8 25.1 16.7 50 7.0 N 26 35 14 19 1009.8 1008.5 0.0
19/02:30am 28.3 25.1 16.2 47 7.6 NNE 28 35 15 19 1009.9 1008.6 0.0
19/02:00am 28.8 25.6 16.4 47 7.8 NNE 28 39 15 21 1009.9 1008.6 0.0
19/01:30am 28.8 26.8 16.4 47 7.8 NNE 22 32 12 17 1010.1 1008.8 0.0
19/01:00am 25.3 25.1 14.7 51 6.4 NNE 9 17 5 9 1010.2 1008.9 0.0
19/12:30am 26.2 26.5 14.6 48 7.0 E 6 9 3 5 1010.1 1008.8 0.0
19/12:00am 26.7 27.9 14.8 48 7.2 NNE 2 6 1 3 1010.1 1008.8 0.0
 
Date/Time
EDT
Temp
°C
App
Temp
°C
Dew
Point
°C
Rel
Hum
%
Delta-T
°C
Wind Press
QNH
hPa
Press
MSL
hPa
Rain since
9am
mm
Dir  Spd
km/h
Gust
km/h
Spd
kts
Gust
kts
18/11:30pm 27.7 26.8 13.6 42 8.4 SE 11 15 6 8 1010.2 1008.9 0.0
18/11:00pm 28.3 26.6 12.6 38 9.3 E 13 15 7 8 1010.0 1008.7 0.0
18/10:30pm 28.6 26.8 13.3 39 9.1 E 15 19 8 10 1009.9 1008.6 0.0
18/10:00pm 29.2 27.9 13.8 39 9.3 E 13 17 7 9 1009.8 1008.5 0.0
18/09:30pm 29.6 28.3 13.8 38 9.6 ENE 13 15 7 8 1009.6 1008.3 0.0
18/09:00pm 29.7 31.5 15.4 42 8.9 CALM 0 0 0 0 1009.4 1008.1 0.0
18/08:30pm 29.8 31.8 15.9 43 8.7 CALM 0 0 0 0 1009.0 1007.7 0.0
18/08:00pm 32.2 34.1 15.7 37 10.4 CALM 0 0 0 0 1008.8 1007.5 0.0
18/07:30pm 35.0 35.6 12.0 25 13.8 CALM 0 0 0 0 1008.5 1007.2 0.0
18/07:00pm 36.2 35.4 13.0 24 14.2 W 9 13 5 7 1008.3 1007.0 0.0
18/06:30pm 37.3 38.1 12.7 23 15.1 CALM 0 6 0 3 1008.2 1006.9 0.0
18/06:00pm 36.9 36.5 13.0 24 14.7 SW 7 11 4 6 1008.0 1006.7 0.0
18/05:30pm 36.5 35.5 13.3 25 14.3 WSW 11 17 6 9 1008.1 1006.8 0.0
18/05:00pm 36.7 35.8 11.5 22 15.2 SSW 7 17 4 9 1008.3 1007.0 0.0
18/04:30pm 36.4 35.3 11.9 23 14.8 SW 9 20 5 11 1008.4 1007.1 0.0
18/04:00pm 35.8 35.7 13.9 27 13.6 W 7 15 4 8 1008.8 1007.5 0.0
18/03:30pm 35.3 34.1 14.0 28 13.2 NW 13 20 7 11 1009.1 1007.8 0.0
18/03:00pm 35.7 35.0 15.4 29 12.9 WSW 13 20 7 11 1009.6 1008.3 0.0
18/02:30pm 34.7 33.5 15.1 31 12.3 W 15 24 8 13 1010.1 1008.8 0.0
18/02:00pm 34.4 33.1 15.8 33 11.8 WSW 17 26 9 14 1010.4 1009.1 0.0
18/01:30pm 33.9 33.5 16.3 35 11.2 WNW 13 24 7 13 1010.7 1009.4 0.0
18/01:00pm 33.2 32.4 15.2 33 11.3 WNW 13 20 7 11 1011.1 1009.8 0.0
18/12:30pm 32.7 32.7 17.3 39 9.9 WNW 13 26 7 14 1011.4 1010.1 0.0
18/12:00pm 32.5 31.6 16.8 39 10.0 WNW 17 26 9 14 1011.9 1010.6 0.0
18/11:30am 31.4 30.7 17.3 43 9.0 W 17 28 9 15 1012.2 1010.9 0.0
18/11:00am 31.0 30.5 17.0 43 8.9 NNW 15 22 8 12 1012.4 1011.1 0.0
18/10:30am 30.1 29.4 16.5 44 8.6 N 15 22 8 12 1012.5 1011.2 0.0
18/10:00am 29.7 29.5 18.5 51 7.3 NNW 17 24 9 13 1012.6 1011.3 0.0
18/09:30am 28.7 28.4 18.2 53 6.8 NNW 17 24 9 13 1012.7 1011.4 0.0
18/09:00am 28.2 27.4 18.0 54 6.5 NNW 19 26 10 14 1012.6 1011.3 0.0
18/08:30am 27.3 26.5 18.0 56 5.9 NNW 19 24 10 13 1012.5 1011.2 0.0
18/08:00am 26.4 25.8 18.5 62 5.1 NNW 19 24 10 13 1012.3 1011.0 0.0
18/07:30am 25.2 23.5 18.2 65 4.5 NNW 24 28 13 15 1012.0 1010.7 0.0
18/07:00am 24.3 23.4 18.2 68 3.9 NNW 20 24 11 13 1011.7 1010.4 0.0
18/06:30am 23.4 23.7 17.8 71 3.5 NNW 13 17 7 9 1011.3 1010.0 0.0
18/06:00am 22.9 23.5 17.8 73 3.2 NNW 11 13 6 7 1010.9 1009.6 0.0
18/05:30am 23.2 23.4 17.7 71 3.5 NNW 13 17 7 9 1010.6 1009.3 0.0
18/05:00am 23.6 23.9 17.8 70 3.7 N 13 17 7 9 1010.1 1008.8 0.0
18/04:30am 24.1 23.9 17.6 67 4.1 N 15 17 8 9 1009.7 1008.4 0.0
18/04:00am 24.6 24.0 17.6 65 4.4 NNW 17 20 9 11 1009.4 1008.1 0.0
18/03:30am 25.4 24.2 17.6 62 4.9 NNW 20 26 11 14 1009.2 1007.9 0.0
18/03:00am 25.8 25.1 17.4 59 5.3 NNW 17 22 9 12 1009.1 1007.8 0.0
18/02:30am 25.4 26.0 17.6 62 4.9 N 11 15 6 8 1009.0 1007.7 0.0
18/02:00am 26.1 27.2 17.2 58 5.6 NNW 7 9 4 5 1009.0 1007.7 0.0
18/01:30am 27.2 26.7 16.8 53 6.5 NNE 15 19 8 10 1008.9 1007.6 0.0
18/01:00am 25.5 26.9 17.4 61 5.1 S 6 11 3 6 1009.2 1007.9 0.0
18/12:30am 24.3 25.2 17.5 66 4.3 ESE 9 15 5 8 1008.6 1007.3 0.0
18/12:00am 25.2 25.9 17.1 60 5.1 ENE 9 13 5 7 1008.7 1007.4 0.0
 
Date/Time
EDT
Temp
°C
App
Temp
°C
Dew
Point
°C
Rel
Hum
%
Delta-T
°C
Wind Press
QNH
hPa
Press
MSL
hPa
Rain since
9am
mm
Dir  Spd
km/h
Gust
km/h
Spd
kts
Gust
kts
17/11:30pm 25.2 25.7 17.4 62 4.9 NE 11 13 6 7 1008.7 1007.4 0.0
17/11:00pm 25.8 26.2 17.2 59 5.4 ENE 11 13 6 7 1008.8 1007.5 0.0
17/10:30pm 26.3 26.0 17.4 58 5.6 ENE 15 17 8 9 1008.6 1007.3 0.0
17/10:00pm 27.1 27.4 17.0 54 6.4 ENE 11 15 6 8 1008.5 1007.2 0.0
17/09:30pm 27.3 27.7 17.2 54 6.4 ENE 11 15 6 8 1008.4 1007.1 0.0
17/09:00pm 27.9 28.5 16.8 50 7.0 NE 9 11 5 6 1008.2 1006.9 0.0
17/08:30pm 28.8 29.1 15.0 43 8.5 ENE 7 9 4 5 1007.8 1006.5 0.0
17/08:00pm 28.6 30.4 16.5 48 7.6 ESE 2 9 1 5 1007.5 1006.1 0.0
17/07:30pm 29.9 31.6 15.2 41 9.1 CALM 0 0 0 0 1007.0 1005.7 0.0
17/07:00pm 32.8 33.1 13.4 30 11.8 SW 4 9 2 5 1006.6 1005.3 0.0
17/06:30pm 35.0 36.0 13.2 27 13.3 CALM 0 4 0 2 1006.4 1005.1 0.0
17/06:00pm 35.6 35.6 13.7 27 13.6 NW 6 11 3 6 1006.3 1005.0 0.0
17/05:30pm 34.6 33.6 12.3 26 13.4 WNW 9 24 5 13 1006.2 1004.9 0.0
17/05:00pm 34.1 33.5 13.5 28 12.7 NNW 9 17 5 9 1006.5 1005.2 0.0
17/04:30pm 34.1 33.3 14.1 30 12.4 NNW 11 24 6 13 1006.6 1005.3 0.0
17/04:00pm 33.9 32.3 12.8 28 12.8 NNW 13 24 7 13 1006.9 1005.6 0.0
17/03:30pm 33.6 33.8 14.6 31 11.8 NNW 7 17 4 9 1007.6 1006.2 0.0
17/03:00pm 33.7 33.7 14.2 30 12.1 N 7 22 4 12 1007.8 1006.5 0.0
17/02:30pm 34.2 34.3 15.6 32 11.7 NW 9 17 5 9 1008.1 1006.8 0.0
17/02:00pm 32.7 32.6 16.1 37 10.5 N 11 20 6 11 1008.3 1007.0 0.0
17/01:30pm 32.5 32.0 15.9 36 10.5 N 13 22 7 12 1008.6 1007.3 0.0
17/01:00pm 31.5 31.6 17.4 43 9.1 N 13 20 7 11 1009.0 1007.7 0.0
17/12:30pm 31.8 31.7 16.9 40 9.5 N 13 26 7 14 1009.2 1007.9 0.0
17/12:00pm 29.6 28.9 17.4 47 7.8 NNW 17 24 9 13 1009.7 1008.4 0.0
17/11:30am 30.0 29.6 17.1 46 8.2 NNE 15 26 8 14 1009.8 1008.5 0.0
17/11:00am 29.2 28.8 17.1 48 7.7 NNE 15 22 8 12 1009.9 1008.6 0.0
17/10:30am 29.6 29.0 18.4 51 7.3 NNE 19 28 10 15 1010.2 1008.9 0.0
17/10:00am 28.6 26.6 17.5 51 7.1 N 24 32 13 17 1010.3 1009.0 0.0
17/09:30am 28.7 27.4 17.2 49 7.3 NNE 20 28 11 15 1010.7 1009.4 0.0
17/09:00am 26.8 24.1 16.7 54 6.3 N 26 35 14 19 1010.7 1009.4 0.0
17/08:30am 26.1 28.2 19.0 65 4.6 SSW 6 9 3 5 1010.8 1009.5 0.0
17/08:00am 24.2 26.1 18.6 71 3.6 SSE 6 9 3 5 1010.9 1009.6 0.0
17/07:30am 23.4 25.9 18.1 72 3.4 SSE 2 7 1 4 1010.5 1009.2 0.0
17/07:00am 22.1 25.0 18.1 78 2.5 CALM 0 0 0 0 1010.3 1009.0 0.0
17/06:30am 21.4 24.1 17.8 80 2.2 CALM 0 6 0 3 1010.1 1008.8 0.0
17/06:00am 21.0 23.3 17.6 81 2.1 ESE 2 7 1 4 1009.8 1008.5 0.0
17/05:30am 21.3 22.7 17.3 78 2.5 E 6 9 3 5 1009.6 1008.3 0.0
17/05:00am 21.4 22.6 17.4 78 2.5 ESE 7 11 4 6 1009.1 1007.8 0.0
17/04:30am 21.6 22.5 17.6 78 2.5 ESE 9 11 5 6 1009.0 1007.7 0.0
17/04:00am 21.9 22.5 17.7 77 2.6 ESE 11 15 6 8 1008.6 1007.3 0.0
17/03:30am 22.3 23.0 17.9 76 2.8 NE 11 13 6 7 1008.4 1007.1 0.0
17/03:00am 22.5 23.1 17.6 74 3.1 NE 11 13 6 7 1008.3 1007.0 0.0
17/02:30am 23.1 22.9 17.6 71 3.4 NNE 15 17 8 9 1008.2 1006.9 0.0
17/02:00am 23.2 23.0 17.7 71 3.5 NNE 15 19 8 10 1008.3 1007.0 0.0
17/01:30am 22.4 23.1 18.0 76 2.8 NNE 11 17 6 9 1008.4 1007.1 0.0
17/01:00am 21.8 22.8 17.8 78 2.5 ENE 9 11 5 6 1008.7 1007.4 0.0
17/12:30am 23.1 23.4 17.8 72 3.3 NE 13 15 7 8 1009.1 1007.8 0.0
17/12:00am 22.9 23.0 17.4 71 3.4 N 13 15 7 8 1009.0 1007.7 0.0
 
Date/Time
EDT
Temp
°C
App
Temp
°C
Dew
Point
°C
Rel
Hum
%
Delta-T
°C
Wind Press
QNH
hPa
Press
MSL
hPa
Rain since
9am
mm
Dir  Spd
km/h
Gust
km/h
Spd
kts
Gust
kts
16/11:30pm 23.3 23.3 17.3 69 3.7 NNE 13 15 7 8 1008.8 1007.5 0.0
16/11:00pm 24.5 23.9 17.5 65 4.4 NNE 17 20 9 11 1008.6 1007.3 0.0
16/10:30pm 24.3 25.1 17.3 65 4.4 NE 9 15 5 8 1008.4 1007.1 0.0
16/10:00pm 24.9 24.1 17.1 62 4.9 ENE 17 20 9 11 1007.6 1006.2 0.0
16/09:30pm 25.1 23.8 17.3 62 4.9 NE 20 28 11 15 1006.9 1005.6 0.0
16/09:00pm 25.7 23.7 17.4 60 5.2 NE 24 32 13 17 1006.4 1005.1 0.0
16/08:30pm 25.8 23.7 17.2 59 5.4 NE 24 33 13 18 1006.2 1004.9 0.0
16/08:00pm 26.1 23.5 17.7 60 5.3 NNE 28 37 15 20 1005.4 1004.1 0.0
16/07:30pm 27.1 23.4 17.0 54 6.4 NE 32 43 17 23 1005.1 1003.8 0.0
16/07:00pm 27.5 23.7 17.1 53 6.6 NE 33 41 18 22 1004.8 1003.5 0.0
16/06:30pm 27.5 22.3 17.4 54 6.4 NE 41 52 22 28 1004.8 1003.5 0.0
16/06:00pm 27.7 24.5 18.1 56 6.2 NE 32 43 17 23 1004.6 1003.3 0.0
16/05:30pm 27.7 25.2 19.8 62 5.2 NE 32 41 17 22 1004.2 1002.9 0.0
16/05:00pm 26.3 21.7 17.9 60 5.4 NNE 39 52 21 28 1004.3 1003.0 0.0
16/04:51pm 30.9 29.0 15.7 39 9.5 NNW 20 52 11 28 1003.9 1002.6 0.0

Other Formats:

Comma delimited format used in spreadsheet applications
http://www.bom.gov.au/fwo/IDN60801/IDN60801.95734.axf

JavaScript Object Notation format (JSON) in row-major order
http://www.bom.gov.au/fwo/IDN60801/IDN60801.95734.json